createdAt,value
2023-04-08T00:02:07.976Z,74.97
2023-04-08T00:07:07.774Z,74.98
2023-04-08T00:12:07.393Z,74.99
2023-04-08T00:17:06.655Z,75.01
2023-04-08T00:22:05.294Z,75.03
2023-04-08T00:27:04.629Z,75.00
2023-04-08T00:32:04.399Z,74.98
2023-04-08T00:37:04.281Z,74.99
2023-04-08T00:42:03.474Z,74.88
2023-04-08T00:47:02.584Z,74.82
2023-04-08T00:52:02.256Z,74.81
2023-04-08T00:57:01.395Z,74.84
2023-04-08T01:02:13.815Z,74.87
2023-04-08T01:07:20.305Z,74.94
2023-04-08T01:12:34.341Z,74.98
2023-04-08T01:17:35.677Z,74.99
2023-04-08T01:22:50.064Z,74.87
2023-04-08T01:27:51.821Z,74.81
2023-04-08T01:32:52.264Z,74.71
2023-04-08T01:37:52.829Z,74.61
2023-04-08T01:42:58.273Z,74.57
2023-04-08T01:48:00.492Z,74.53
2023-04-08T01:53:01.029Z,74.51
2023-04-08T01:58:04.071Z,74.49
2023-04-08T02:03:04.644Z,74.51
2023-04-08T02:08:04.715Z,74.52
2023-04-08T02:13:04.284Z,74.54
2023-04-08T02:18:14.766Z,74.57
2023-04-08T02:23:21.180Z,74.63
2023-04-08T02:28:24.185Z,74.72
2023-04-08T02:33:26.010Z,74.81
2023-04-08T02:38:30.038Z,74.92
2023-04-08T02:43:32.585Z,75.04
2023-04-08T02:48:32.034Z,75.18
2023-04-08T02:53:30.896Z,75.34
2023-04-08T02:58:30.104Z,75.52
2023-04-08T03:03:29.942Z,75.66
2023-04-08T03:08:29.060Z,75.85
2023-04-08T03:13:29.933Z,76.01
2023-04-08T03:18:29.257Z,76.16
2023-04-08T03:23:28.462Z,76.34
2023-04-08T03:28:27.455Z,76.51
2023-04-08T03:33:27.099Z,76.69
2023-04-08T03:38:26.839Z,76.84
2023-04-08T03:43:26.422Z,77.01
2023-04-08T03:48:25.838Z,77.16
2023-04-08T03:53:29.420Z,77.29
2023-04-08T03:58:28.782Z,77.42
2023-04-08T04:03:28.450Z,77.57
2023-04-08T04:08:30.004Z,77.75
2023-04-08T04:13:29.837Z,77.83
2023-04-08T04:18:29.683Z,78.00
2023-04-08T04:23:28.924Z,78.16
2023-04-08T04:28:28.179Z,78.33
2023-04-08T04:33:27.510Z,78.48
2023-04-08T04:38:27.310Z,78.62
2023-04-08T04:43:26.484Z,78.72
2023-04-08T04:48:28.119Z,78.83
2023-04-08T04:53:28.327Z,78.96
2023-04-08T04:58:28.584Z,79.13
2023-04-08T05:03:27.511Z,79.24
2023-04-08T05:08:28.173Z,79.40
2023-04-08T05:13:27.649Z,79.55
2023-04-08T05:18:26.593Z,79.70
2023-04-08T05:23:27.930Z,79.88
2023-04-08T05:28:27.297Z,79.97
2023-04-08T05:33:26.841Z,80.05
2023-04-08T05:38:26.521Z,80.13
2023-04-08T05:43:25.804Z,80.19
2023-04-08T05:48:25.142Z,80.18
2023-04-08T05:53:25.175Z,80.24
2023-04-08T05:58:24.010Z,80.27
2023-04-08T06:03:23.210Z,80.23
2023-04-08T06:08:23.793Z,80.20
2023-04-08T06:13:25.993Z,80.12
2023-04-08T06:18:25.078Z,80.06
2023-04-08T06:23:23.939Z,79.99
2023-04-08T06:28:23.459Z,79.85
2023-04-08T06:33:22.453Z,79.64
2023-04-08T06:38:21.498Z,79.30
2023-04-08T06:43:20.584Z,79.05
2023-04-08T06:48:21.073Z,78.75
2023-04-08T06:53:20.570Z,78.42
2023-04-08T06:58:20.338Z,78.05
2023-04-08T07:03:19.712Z,77.57
2023-04-08T07:08:19.214Z,77.13
2023-04-08T07:13:18.272Z,76.62
2023-04-08T07:18:19.158Z,76.14
2023-04-08T07:23:18.695Z,75.56
2023-04-08T07:28:17.614Z,74.99
2023-04-08T07:33:16.997Z,72.65
2023-04-08T07:38:16.318Z,72.86
2023-04-08T07:43:15.546Z,72.67
2023-04-08T07:48:16.335Z,71.66
2023-04-08T07:53:16.041Z,71.51
2023-04-08T07:58:16.071Z,70.76
2023-04-08T08:03:15.367Z,70.33
2023-04-08T08:08:14.869Z,69.23
2023-04-08T08:13:17.308Z,66.84
2023-04-08T08:18:17.017Z,66.95
2023-04-08T08:23:15.900Z,66.94
2023-04-08T08:28:14.545Z,66.51
2023-04-08T08:33:13.746Z,66.06
2023-04-08T08:38:14.306Z,65.95
2023-04-08T08:43:15.127Z,64.13
2023-04-08T08:48:14.007Z,63.81
2023-04-08T08:53:13.653Z,64.20
2023-04-08T08:58:12.953Z,64.15
2023-04-08T09:03:25.001Z,62.86
2023-04-08T09:08:34.256Z,58.40
2023-04-08T09:13:40.411Z,60.08
2023-04-08T09:18:41.287Z,61.00
2023-04-08T09:23:49.685Z,60.16
2023-04-08T09:29:11.459Z,59.81
2023-04-08T09:34:20.884Z,59.82
2023-04-08T09:39:21.238Z,59.28
2023-04-08T09:44:22.180Z,56.72
2023-04-08T09:49:31.413Z,57.44
2023-04-08T09:54:43.596Z,58.56
2023-04-08T09:59:52.739Z,57.89
2023-04-08T10:04:56.384Z,55.97
2023-04-08T10:09:55.545Z,54.98
2023-04-08T10:15:26.393Z,55.05
2023-04-08T10:20:48.051Z,53.91
2023-04-08T10:25:48.676Z,54.63
2023-04-08T10:30:51.611Z,55.53
2023-04-08T10:35:57.916Z,51.81
2023-04-08T10:40:59.365Z,51.86
2023-04-08T10:45:58.438Z,49.83
2023-04-08T10:51:03.999Z,50.67
2023-04-08T10:56:13.671Z,46.89
2023-04-08T11:01:13.455Z,47.83
2023-04-08T11:06:13.288Z,47.31
2023-04-08T11:11:13.656Z,46.98
2023-04-08T11:16:18.142Z,44.60
2023-04-08T11:21:18.348Z,43.98
2023-04-08T11:26:19.085Z,45.31
2023-04-08T11:31:23.495Z,45.64
2023-04-08T11:36:24.147Z,45.44
2023-04-08T11:41:24.267Z,44.53
2023-04-08T11:46:24.319Z,44.19
2023-04-08T11:51:24.402Z,44.44
2023-04-08T11:56:25.924Z,43.63
2023-04-08T12:01:26.079Z,44.27
2023-04-08T12:06:24.983Z,44.71
2023-04-08T12:11:26.170Z,40.94
2023-04-08T12:16:25.531Z,39.93
2023-04-08T12:21:24.229Z,39.29
2023-04-08T12:26:23.441Z,42.30
2023-04-08T12:31:22.804Z,39.87
2023-04-08T12:36:21.792Z,42.21
2023-04-08T12:41:22.114Z,41.23
2023-04-08T12:46:21.962Z,38.33
2023-04-08T12:51:22.039Z,34.51
2023-04-08T12:56:21.384Z,38.08
2023-04-08T13:01:20.697Z,34.57
2023-04-08T13:06:19.961Z,37.21
2023-04-08T13:11:19.801Z,36.64
2023-04-08T13:16:19.998Z,40.65
2023-04-08T13:21:19.185Z,41.65
2023-04-08T13:26:19.943Z,38.81
2023-04-08T13:31:19.352Z,39.16
2023-04-08T13:36:18.789Z,37.80
2023-04-08T13:41:18.375Z,39.29
2023-04-08T13:46:18.422Z,39.66
2023-04-08T13:51:17.832Z,36.62
2023-04-08T13:56:16.941Z,38.01
2023-04-08T14:01:15.881Z,37.44
2023-04-08T14:06:15.232Z,37.98
2023-04-08T14:11:16.835Z,37.79
2023-04-08T14:16:16.809Z,36.98
2023-04-08T14:21:18.194Z,37.29
2023-04-08T14:26:17.270Z,36.61
2023-04-08T14:31:17.214Z,38.17
2023-04-08T14:36:15.807Z,37.86
2023-04-08T14:41:15.709Z,37.04
2023-04-08T14:46:14.978Z,38.49
2023-04-08T14:51:14.114Z,40.15
2023-04-08T14:56:14.876Z,41.49
2023-04-08T15:01:13.955Z,41.41
2023-04-08T15:06:17.097Z,41.49
2023-04-08T15:11:16.754Z,41.46
2023-04-08T15:16:15.859Z,40.72
2023-04-08T15:21:15.259Z,40.83
2023-04-08T15:26:14.472Z,41.25
2023-04-08T15:31:13.773Z,41.11
2023-04-08T15:36:19.622Z,41.81
2023-04-08T15:41:22.526Z,42.26
2023-04-08T15:46:24.186Z,42.69
2023-04-08T15:51:23.802Z,42.91
2023-04-08T15:56:22.739Z,43.68
2023-04-08T16:01:21.891Z,43.74
2023-04-08T16:06:21.164Z,43.90
2023-04-08T16:11:22.179Z,43.94
2023-04-08T16:16:21.552Z,44.12
2023-04-08T16:21:21.245Z,44.38
2023-04-08T16:26:21.963Z,44.89
2023-04-08T16:31:21.104Z,45.07
2023-04-08T16:36:20.319Z,45.58
2023-04-08T16:41:19.556Z,45.99
2023-04-08T16:46:20.951Z,46.24
2023-04-08T16:51:20.475Z,46.68
2023-04-08T16:56:20.235Z,46.91
2023-04-08T17:01:19.927Z,47.00
2023-04-08T17:06:19.412Z,46.85
2023-04-08T17:11:19.036Z,47.06
2023-04-08T17:16:19.650Z,47.03
2023-04-08T17:21:20.358Z,47.08
2023-04-08T17:26:19.267Z,47.27
2023-04-08T17:31:19.353Z,47.82
2023-04-08T17:36:19.442Z,48.23
2023-04-08T17:41:35.412Z,48.64
2023-04-08T17:46:38.324Z,48.99
2023-04-08T17:51:37.468Z,49.70
2023-04-08T17:56:36.481Z,50.80
2023-04-08T18:01:37.448Z,51.77
2023-04-08T18:06:36.979Z,53.27
2023-04-08T18:11:36.448Z,53.97
2023-04-08T18:16:35.281Z,55.03
2023-04-08T18:21:35.101Z,55.94
2023-04-08T18:26:34.054Z,56.85
2023-04-08T18:31:33.761Z,57.88
2023-04-08T18:36:32.782Z,58.77
2023-04-08T18:41:31.400Z,59.48
2023-04-08T18:46:33.073Z,60.00
2023-04-08T18:51:33.643Z,60.55
2023-04-08T18:56:34.358Z,61.46
2023-04-08T19:01:36.111Z,61.89
2023-04-08T19:06:36.788Z,62.36
2023-04-08T19:11:36.452Z,63.42
2023-04-08T19:16:36.192Z,63.25
2023-04-08T19:21:37.972Z,63.77
2023-04-08T19:26:37.323Z,64.55
2023-04-08T19:31:36.062Z,64.61
2023-04-08T19:36:35.405Z,65.42
2023-04-08T19:41:34.561Z,66.65
2023-04-08T19:46:35.160Z,67.82
2023-04-08T19:51:33.996Z,68.51
2023-04-08T19:56:34.380Z,68.71
2023-04-08T20:01:35.930Z,68.83
2023-04-08T20:06:36.703Z,69.38
2023-04-08T20:11:35.703Z,69.37
2023-04-08T20:16:35.167Z,68.67
2023-04-08T20:21:34.461Z,68.87
2023-04-08T20:26:34.027Z,68.65
2023-04-08T20:31:33.745Z,69.94
2023-04-08T20:36:32.753Z,70.07
2023-04-08T20:41:31.848Z,70.52
2023-04-08T20:46:32.021Z,70.33
2023-04-08T20:51:31.146Z,70.79
2023-04-08T20:56:30.676Z,70.22
2023-04-08T21:01:29.632Z,71.66
2023-04-08T21:06:28.943Z,70.51
2023-04-08T21:11:28.527Z,70.32
2023-04-08T21:16:29.150Z,72.05
2023-04-08T21:21:28.140Z,71.90
2023-04-08T21:26:27.965Z,71.71
2023-04-08T21:31:27.569Z,72.78
2023-04-08T21:36:27.955Z,72.66
2023-04-08T21:41:28.440Z,72.14
2023-04-08T21:46:30.102Z,73.11
2023-04-08T21:51:34.237Z,72.71
2023-04-08T21:56:34.326Z,72.42
2023-04-08T22:01:36.423Z,74.01
2023-04-08T22:06:36.337Z,76.04
2023-04-08T22:11:35.442Z,75.60
2023-04-08T22:16:34.562Z,74.43
2023-04-08T22:21:33.618Z,75.62
2023-04-08T22:26:33.314Z,74.21
2023-04-08T22:31:31.879Z,74.97
2023-04-08T22:36:31.684Z,75.05
2023-04-08T22:41:31.731Z,74.53
2023-04-08T22:46:31.447Z,74.55
2023-04-08T22:51:31.217Z,75.12
2023-04-08T22:56:31.169Z,75.24
2023-04-08T23:01:30.696Z,74.61
2023-04-08T23:06:30.272Z,74.66
2023-04-08T23:11:28.810Z,75.26
2023-04-08T23:16:28.180Z,75.89
2023-04-08T23:21:27.673Z,75.90
2023-04-08T23:26:27.059Z,76.00
2023-04-08T23:31:27.025Z,76.22
2023-04-08T23:36:27.935Z,77.21
2023-04-08T23:41:27.434Z,76.99
2023-04-08T23:46:26.133Z,76.45
2023-04-08T23:51:26.840Z,76.35
2023-04-08T23:56:26.408Z,77.59
